Time;durP1;ratioP1;P1;durP2;ratioP2;P2;SDS_P1;SDS_P2;PMS_P1;PMS_P2;Temp;Humidity;BMP_temperature;BMP_pressure;BME280_temperature;BME280_humidity;BME280_pressure;Samples;Min_cycle;Max_cycle;Signal;HPM_P1;HPM_P2
2023/09/14 00:02:02;;;;;;;;;;;;;;;28.60;36.27;100922.19;5077524;28;1105;-28
2023/09/14 00:04:27;;;;;;;;;;;;;;;28.60;36.16;100918.63;5078091;28;1173;-29
2023/09/14 00:06:53;;;;;;;;;;;;;;;28.66;36.18;100915.16;5077788;28;1146;-32
2023/09/14 00:09:18;;;;;;;;;;;;;;;28.71;36.22;100914.59;5076774;28;1095;-31
2023/09/14 00:11:44;;;;;;;;;;;;;;;28.61;36.10;100917.63;5077341;28;1377;-29
2023/09/14 00:14:09;;;;;;;;;;;;;;;28.57;36.32;100914.44;5077194;28;1038;-29
2023/09/14 00:16:35;;;;;;;;;;;;;;;28.57;36.34;100911.72;5077096;28;1903;-31
2023/09/14 00:19:01;;;;;;;;;;;;;;;28.71;36.10;100917.31;5067553;28;2773;-28
2023/09/14 00:21:27;;;;;;;;;;;;;;;28.64;36.24;100910.97;5074856;28;1095;-28
2023/09/14 00:23:52;;;;;;;;;;;;;;;28.78;36.15;100911.97;5077841;28;1056;-32
2023/09/14 00:26:18;;;;;;;;;;;;;;;28.71;36.12;100911.91;5063899;28;1027;-29
2023/09/14 00:28:47;;;;;;;;;;;;;;;28.67;36.23;100906.03;5077560;28;1003;-31
2023/09/14 00:31:12;;;;;;;;;;;;;;;28.64;36.19;100905.56;5073381;28;1217;-27
2023/09/14 00:33:38;;;;;;;;;;;;;;;28.76;35.76;100900.50;5050180;28;897;-30
2023/09/14 00:36:04;;;;;;;;;;;;;;;28.63;35.73;100907.41;5059027;28;1959;-29
2023/09/14 00:38:29;;;;;;;;;;;;;;;28.65;36.02;100908.06;5077142;28;1023;-30
2023/09/14 00:40:55;;;;;;;;;;;;;;;28.68;35.69;100904.13;5063970;28;979;-29
2023/09/14 00:43:20;;;;;;;;;;;;;;;28.62;35.78;100907.59;5050009;28;1254;-28
2023/09/14 00:45:46;;;;;;;;;;;;;;;28.56;36.19;100901.91;5072733;28;1066;-32
2023/09/14 00:48:11;;;;;;;;;;;;;;;28.62;35.60;100900.34;5075959;28;2474;-29
2023/09/14 00:50:37;;;;;;;;;;;;;;;28.59;36.11;100904.25;5076383;28;1023;-33
2023/09/14 00:53:10;;;;;;;;;;;;;;;28.55;36.10;100899.41;5077122;28;1011;-28
2023/09/14 00:55:35;;;;;;;;;;;;;;;28.57;35.73;100906.31;5076962;28;1118;-29
2023/09/14 00:58:01;;;;;;;;;;;;;;;28.64;35.56;100892.03;5058879;28;1983;-27
2023/09/14 01:00:26;;;;;;;;;;;;;;;28.68;35.84;100902.28;5076815;28;1245;-30
2023/09/14 01:02:54;;;;;;;;;;;;;;;28.63;35.95;100901.19;5076782;28;987;-28
2023/09/14 01:05:20;;;;;;;;;;;;;;;28.69;35.77;100897.72;5076210;28;1034;-30
2023/09/14 01:07:47;;;;;;;;;;;;;;;28.66;36.05;100898.91;5047985;28;1235;-31
2023/09/14 01:10:15;;;;;;;;;;;;;;;28.70;35.94;100883.13;5074320;28;1098;-30
2023/09/14 01:12:41;;;;;;;;;;;;;;;28.64;35.97;100889.31;5058643;28;1059;-30
2023/09/14 01:15:07;;;;;;;;;;;;;;;28.72;35.74;100889.22;5058233;28;1118;-29
2023/09/14 01:17:48;;;;;;;;;;;;;;;28.69;35.96;100889.59;5076183;28;2480;-31
2023/09/14 01:20:19;;;;;;;;;;;;;;;28.65;35.83;100893.69;5058579;28;1099;-33
2023/09/14 01:22:53;;;;;;;;;;;;;;;28.66;36.05;100885.38;5041832;28;1299;-27
2023/09/14 01:25:19;;;;;;;;;;;;;;;28.78;35.65;100888.44;5041932;28;1119;-30
2023/09/14 01:27:46;;;;;;;;;;;;;;;28.73;35.74;100891.72;5064780;28;1275;-31
2023/09/14 01:30:11;;;;;;;;;;;;;;;28.74;35.56;100900.69;5076460;28;1106;-34
2023/09/14 01:32:37;;;;;;;;;;;;;;;28.60;35.62;100902.38;5076181;28;989;-29
2023/09/14 01:35:04;;;;;;;;;;;;;;;28.65;35.53;100893.69;5058666;28;1170;-34
2023/09/14 01:37:29;;;;;;;;;;;;;;;28.61;36.02;100901.38;5057934;28;1910;-30
2023/09/14 01:39:55;;;;;;;;;;;;;;;28.65;35.70;100902.66;5057941;28;1240;-30
2023/09/14 01:42:21;;;;;;;;;;;;;;;28.62;35.96;100894.94;5058324;28;1140;-27
2023/09/14 01:44:47;;;;;;;;;;;;;;;28.65;36.19;100890.97;5058005;28;1118;-28
2023/09/14 01:47:12;;;;;;;;;;;;;;;28.48;35.96;100894.75;5075778;28;1903;-33
2023/09/14 01:49:38;;;;;;;;;;;;;;;28.68;35.96;100890.59;5058112;28;1117;-28
2023/09/14 01:52:03;;;;;;;;;;;;;;;28.62;35.97;100894.94;5076096;28;1059;-28
2023/09/14 01:54:29;;;;;;;;;;;;;;;28.62;36.11;100894.06;5057909;28;1123;-30
2023/09/14 01:56:54;;;;;;;;;;;;;;;28.63;36.10;100887.66;5057570;28;1971;-32
2023/09/14 01:59:20;;;;;;;;;;;;;;;28.69;35.90;100887.72;5057311;28;1235;-30
2023/09/14 02:01:45;;;;;;;;;;;;;;;28.53;36.28;100894.19;5057462;28;1234;-27
2023/09/14 02:04:11;;;;;;;;;;;;;;;28.68;35.96;100885.19;5068148;28;874;-27
2023/09/14 02:06:36;;;;;;;;;;;;;;;28.68;35.84;100899.56;5051404;28;1368;-31
2023/09/14 02:09:03;;;;;;;;;;;;;;;28.59;36.43;100889.91;5063553;28;1155;-30
2023/09/14 02:11:28;;;;;;;;;;;;;;;28.55;35.94;100894.00;5075881;28;1012;-28
2023/09/14 02:13:54;;;;;;;;;;;;;;;28.56;36.16;100896.50;5057842;28;1078;-29
2023/09/14 02:16:19;;;;;;;;;;;;;;;28.56;35.81;100890.28;5056893;28;1902;-29
2023/09/14 02:18:45;;;;;;;;;;;;;;;28.56;36.30;100895.69;5075745;28;2542;-28
2023/09/14 02:21:11;;;;;;;;;;;;;;;28.59;35.68;100888.00;5044218;28;1246;-31
2023/09/14 02:23:37;;;;;;;;;;;;;;;28.65;35.66;100882.88;5075995;28;1098;-29
2023/09/14 02:26:02;;;;;;;;;;;;;;;28.50;36.06;100875.63;5056444;28;2041;-28
2023/09/14 02:28:28;;;;;;;;;;;;;;;28.62;35.93;100883.25;5068797;28;928;-28
2023/09/14 02:30:53;;;;;;;;;;;;;;;28.54;35.84;100885.06;5075511;28;1106;-29
2023/09/14 02:33:19;;;;;;;;;;;;;;;28.60;35.82;100888.84;5057518;28;1257;-29
2023/09/14 02:35:50;;;;;;;;;;;;;;;28.71;35.79;100885.66;5075637;28;1076;-29
2023/09/14 02:38:16;;;;;;;;;;;;;;;28.64;36.04;100881.19;5057392;28;1906;-29
2023/09/14 02:40:42;;;;;;;;;;;;;;;28.63;35.84;100877.66;5056794;28;1059;-28
2023/09/14 02:43:07;;;;;;;;;;;;;;;28.63;36.02;100876.81;5057395;28;1138;-30
2023/09/14 02:45:33;;;;;;;;;;;;;;;28.45;35.88;100883.47;5057227;28;1031;-27
2023/09/14 02:47:58;;;;;;;;;;;;;;;28.51;36.13;100876.47;5075087;28;2530;-30
2023/09/14 02:50:24;;;;;;;;;;;;;;;28.58;36.04;100878.22;5075234;28;1062;-31
2023/09/14 02:52:49;;;;;;;;;;;;;;;28.44;36.30;100884.50;5057164;28;1253;-29
2023/09/14 02:55:15;;;;;;;;;;;;;;;28.41;36.30;100882.19;5057372;28;1169;-27
2023/09/14 02:57:41;;;;;;;;;;;;;;;28.48;36.33;100883.09;5057690;28;1898;-32
2023/09/14 03:00:08;;;;;;;;;;;;;;;28.59;35.97;100887.19;5057006;28;1107;-31
2023/09/14 03:02:33;;;;;;;;;;;;;;;28.62;35.34;100880.53;5049519;28;1174;-29
2023/09/14 03:04:59;;;;;;;;;;;;;;;28.49;36.13;100884.78;5052232;28;850;-29
2023/09/14 03:07:24;;;;;;;;;;;;;;;28.57;35.57;100884.69;5049319;28;1504;-30
2023/09/14 03:09:51;;;;;;;;;;;;;;;28.64;36.01;100890.16;5039447;28;1951;-29
2023/09/14 03:12:18;;;;;;;;;;;;;;;28.65;35.67;100885.56;5049480;28;1343;-30
2023/09/14 03:14:43;;;;;;;;;;;;;;;28.49;36.02;100887.50;5061050;28;1198;-28
2023/09/14 03:17:09;;;;;;;;;;;;;;;28.47;36.30;100890.38;5078243;28;2363;-28
2023/09/14 03:19:34;;;;;;;;;;;;;;;28.58;35.93;100885.50;5051810;28;1232;-31
2023/09/14 03:22:00;;;;;;;;;;;;;;;28.51;36.01;100882.69;5060671;28;1015;-26
2023/09/14 03:24:26;;;;;;;;;;;;;;;28.52;35.88;100888.97;5060853;28;1169;-32
2023/09/14 03:26:51;;;;;;;;;;;;;;;28.54;35.63;100887.75;5078965;28;1015;-32
2023/09/14 03:29:17;;;;;;;;;;;;;;;28.58;35.67;100888.19;5060264;28;1095;-27
2023/09/14 03:31:42;;;;;;;;;;;;;;;28.48;35.37;100883.94;5060624;28;1158;-29
2023/09/14 03:34:08;;;;;;;;;;;;;;;28.53;35.13;100886.06;5060512;28;1126;-29
2023/09/14 03:36:33;;;;;;;;;;;;;;;28.52;35.24;100880.84;5060253;28;1898;-30
2023/09/14 03:38:59;;;;;;;;;;;;;;;28.47;35.30;100876.84;5060542;28;1194;-29
2023/09/14 03:41:30;;;;;;;;;;;;;;;28.58;35.57;100874.66;5060353;28;1135;-30
2023/09/14 03:43:55;;;;;;;;;;;;;;;28.49;35.50;100882.06;5078392;28;1114;-31
2023/09/14 03:46:22;;;;;;;;;;;;;;;28.46;35.54;100893.28;5078424;28;1166;-29
2023/09/14 03:48:48;;;;;;;;;;;;;;;28.41;35.88;100895.72;5078115;28;2625;-28
2023/09/14 03:51:13;;;;;;;;;;;;;;;27.09;35.37;100889.44;5077952;28;1035;-28
2023/09/14 03:53:39;;;;;;;;;;;;;;;26.55;33.96;100892.94;5058515;28;881;-30
2023/09/14 03:56:05;;;;;;;;;;;;;;;27.17;37.85;100885.88;5040531;28;1119;-27
2023/09/14 03:58:31;;;;;;;;;;;;;;;27.49;38.24;100892.00;5041517;28;1910;-28
2023/09/14 04:00:56;;;;;;;;;;;;;;;26.60;41.08;100882.47;5060089;28;1157;-26
2023/09/14 04:03:22;;;;;;;;;;;;;;;26.26;41.88;100892.50;5046072;28;1401;-28
2023/09/14 04:05:48;;;;;;;;;;;;;;;26.31;42.03;100884.75;5076262;28;987;-27
2023/09/14 04:08:13;;;;;;;;;;;;;;;25.87;43.54;100883.38;5078041;28;972;-27
2023/09/14 04:10:39;;;;;;;;;;;;;;;26.65;42.42;100889.03;5078213;28;1099;-31
2023/09/14 04:13:23;;;;;;;;;;;;;;;26.60;41.73;100898.66;5046207;28;1278;-26
2023/09/14 04:15:50;;;;;;;;;;;;;;;26.23;42.67;100903.66;5077700;28;1003;-30
2023/09/14 04:18:15;;;;;;;;;;;;;;;26.14;43.14;100909.06;5053967;28;1910;-28
2023/09/14 04:20:41;;;;;;;;;;;;;;;26.06;43.73;100894.78;5076930;28;1000;-29
2023/09/14 04:23:06;;;;;;;;;;;;;;;26.48;42.33;100898.19;5061539;28;1055;-27
2023/09/14 04:25:32;;;;;;;;;;;;;;;25.85;43.96;100891.63;5039897;28;1149;-29
2023/09/14 04:27:58;;;;;;;;;;;;;;;25.55;45.04;100886.75;5056085;28;1434;-29
2023/09/14 04:30:24;;;;;;;;;;;;;;;25.26;46.00;100887.22;5049778;28;1246;-28
2023/09/14 04:32:50;;;;;;;;;;;;;;;25.69;45.22;100887.09;5055960;28;1079;-28
2023/09/14 04:35:16;;;;;;;;;;;;;;;26.36;43.22;100889.66;5049644;28;1147;-26
2023/09/14 04:37:42;;;;;;;;;;;;;;;26.55;43.69;100887.53;5042970;28;1917;-29
2023/09/14 04:40:09;;;;;;;;;;;;;;;26.69;43.25;100892.22;5058843;28;1402;-28
2023/09/14 04:42:34;;;;;;;;;;;;;;;26.85;43.35;100901.22;5058581;28;1344;-27
2023/09/14 04:45:00;;;;;;;;;;;;;;;27.22;42.11;100898.81;5049468;28;1155;-30
2023/09/14 04:47:26;;;;;;;;;;;;;;;27.34;41.92;100902.78;5061023;28;1871;-27
2023/09/14 04:49:51;;;;;;;;;;;;;;;27.25;42.46;100899.31;5059160;28;1482;-32
2023/09/14 04:52:17;;;;;;;;;;;;;;;27.27;42.48;100896.44;5045590;28;1090;-32
2023/09/14 04:54:42;;;;;;;;;;;;;;;27.27;42.19;100899.13;5059244;28;1102;-32
2023/09/14 04:57:08;;;;;;;;;;;;;;;27.36;42.05;100903.44;5059136;28;1966;-30
2023/09/14 04:59:34;;;;;;;;;;;;;;;27.21;42.58;100902.56;5059104;28;1214;-27
2023/09/14 05:02:00;;;;;;;;;;;;;;;27.39;42.36;100903.06;5045483;28;1151;-28
2023/09/14 05:04:26;;;;;;;;;;;;;;;27.24;42.75;100899.50;5058045;28;1321;-27
2023/09/14 05:06:51;;;;;;;;;;;;;;;27.09;43.19;100896.72;5045929;28;1103;-28
2023/09/14 05:09:17;;;;;;;;;;;;;;;27.37;42.73;100902.44;5067059;28;991;-27
2023/09/14 05:11:42;;;;;;;;;;;;;;;27.62;41.83;100904.06;5060209;28;1055;-29
2023/09/14 05:14:08;;;;;;;;;;;;;;;27.74;41.06;100899.09;5065375;28;868;-32
2023/09/14 05:16:33;;;;;;;;;;;;;;;27.60;41.91;100898.00;5060190;28;1981;-28
2023/09/14 05:18:59;;;;;;;;;;;;;;;27.65;41.84;100897.47;5058559;28;2101;-33
2023/09/14 05:21:24;;;;;;;;;;;;;;;27.65;42.43;100897.47;5058727;28;1103;-30
2023/09/14 05:23:50;;;;;;;;;;;;;;;27.57;42.61;100903.78;5067872;28;1186;-29
2023/09/14 05:26:15;;;;;;;;;;;;;;;27.72;41.93;100901.16;5063187;28;1031;-28
2023/09/14 05:28:42;;;;;;;;;;;;;;;27.62;42.01;100915.75;5054574;28;2204;-29
2023/09/14 05:31:07;;;;;;;;;;;;;;;27.95;41.17;100909.19;5044926;28;1070;-27
2023/09/14 05:33:33;;;;;;;;;;;;;;;27.63;42.13;100901.19;5055358;28;1174;-29
2023/09/14 05:35:59;;;;;;;;;;;;;;;27.41;42.88;100902.88;5058327;28;1322;-28
2023/09/14 05:38:24;;;;;;;;;;;;;;;25.58;48.07;100901.72;5058613;28;1976;-26
2023/09/14 05:40:52;;;;;;;;;;;;;;;25.02;48.95;100905.03;5075549;28;1070;-27
2023/09/14 05:43:17;;;;;;;;;;;;;;;24.80;49.89;100901.91;5058529;28;1201;-30
2023/09/14 05:45:43;;;;;;;;;;;;;;;24.99;49.28;100898.13;5058146;28;1431;-31
2023/09/14 05:48:09;;;;;;;;;;;;;;;24.72;50.31;100897.34;5042130;28;1099;-29
2023/09/14 05:50:35;;;;;;;;;;;;;;;25.96;46.99;100894.97;5042929;28;1239;-29
2023/09/14 05:53:02;;;;;;;;;;;;;;;26.82;45.18;100896.19;5058268;28;1243;-29
2023/09/14 05:55:27;;;;;;;;;;;;;;;26.94;44.82;100888.53;5058152;28;1330;-29
2023/09/14 05:57:53;;;;;;;;;;;;;;;26.94;44.48;100881.28;5056223;28;1969;-29
2023/09/14 06:00:19;;;;;;;;;;;;;;;27.67;42.78;100884.59;5045146;28;1186;-28
2023/09/14 06:02:49;;;;;;;;;;;;;;;28.10;41.38;100886.72;5047701;28;1330;-27
2023/09/14 06:05:15;;;;;;;;;;;;;;;28.11;41.27;100891.94;5045935;28;1202;-30
2023/09/14 06:07:41;;;;;;;;;;;;;;;28.18;41.06;100883.94;5076054;28;1198;-31
2023/09/14 06:10:07;;;;;;;;;;;;;;;28.31;41.08;100893.25;5058000;28;1339;-27
2023/09/14 06:12:32;;;;;;;;;;;;;;;28.37;40.83;100889.84;5081452;28;1372;-31
2023/09/14 06:14:58;;;;;;;;;;;;;;;28.33;40.93;100893.94;5069238;28;1106;-27
2023/09/14 06:17:23;;;;;;;;;;;;;;;28.46;40.58;100902.22;5073424;28;1953;-29
2023/09/14 06:19:49;;;;;;;;;;;;;;;27.22;43.59;100888.88;5074401;28;1059;-28
2023/09/14 06:22:14;;;;;;;;;;;;;;;27.26;43.44;100883.94;5060542;28;1222;-31
2023/09/14 06:24:40;;;;;;;;;;;;;;;27.06;44.10;100892.50;5056388;28;1182;-28
2023/09/14 06:27:05;;;;;;;;;;;;;;;27.29;44.12;100891.69;5075163;28;1130;-28
2023/09/14 06:29:31;;;;;;;;;;;;;;;27.19;43.68;100880.28;5062659;28;1032;-28
2023/09/14 06:31:56;;;;;;;;;;;;;;;27.34;43.13;100878.47;5075827;28;1162;-26
2023/09/14 06:34:22;;;;;;;;;;;;;;;27.85;42.08;100885.13;5059967;28;1050;-30
2023/09/14 06:36:47;;;;;;;;;;;;;;;27.49;43.24;100892.00;5064773;28;1893;-30
2023/09/14 06:39:13;;;;;;;;;;;;;;;27.75;42.26;100898.06;5062620;28;963;-26
2023/09/14 06:41:39;;;;;;;;;;;;;;;27.78;41.86;100894.19;5075669;28;1139;-27
2023/09/14 06:44:05;;;;;;;;;;;;;;;27.72;40.67;100898.44;5074983;28;1063;-28
2023/09/14 06:46:30;;;;;;;;;;;;;;;27.82;41.30;100904.44;5067840;28;1055;-27
2023/09/14 06:48:56;;;;;;;;;;;;;;;27.91;41.56;100897.06;5067575;28;1059;-26
2023/09/14 06:51:21;;;;;;;;;;;;;;;27.62;40.70;100904.06;5062804;28;987;-26
2023/09/14 06:53:47;;;;;;;;;;;;;;;27.73;40.50;100884.75;5079687;28;1166;-27
2023/09/14 06:56:13;;;;;;;;;;;;;;;27.25;40.51;100893.06;5074039;28;1106;-26
2023/09/14 06:58:38;;;;;;;;;;;;;;;26.57;42.94;100902.56;5079236;28;1910;-26
2023/09/14 07:01:05;;;;;;;;;;;;;;;27.89;39.75;100899.13;5079780;28;1144;-27
2023/09/14 07:03:31;;;;;;;;;;;;;;;27.95;39.19;100900.25;5079294;28;1059;-28
2023/09/14 07:05:56;;;;;;;;;;;;;;;28.26;38.23;100904.63;5074436;28;1243;-28
2023/09/14 07:08:22;;;;;;;;;;;;;;;28.12;38.71;100909.03;5076621;28;1143;-27
2023/09/14 07:10:47;;;;;;;;;;;;;;;28.04;39.63;100909.13;5074638;28;1090;-26
2023/09/14 07:13:14;;;;;;;;;;;;;;;28.72;37.69;100906.28;5065366;28;1091;-28
2023/09/14 07:15:40;;;;;;;;;;;;;;;28.50;38.33;100913.50;5076644;28;1355;-27
2023/09/14 07:18:05;;;;;;;;;;;;;;;29.06;37.21;100908.56;5075740;28;1917;-27
2023/09/14 07:20:31;;;;;;;;;;;;;;;29.16;36.89;100906.34;5059405;28;1102;-27
2023/09/14 07:22:57;;;;;;;;;;;;;;;28.43;37.88;100916.13;5074131;28;1289;-31
2023/09/14 07:25:23;;;;;;;;;;;;;;;28.43;38.03;100901.75;5065293;28;1054;-27
2023/09/14 07:27:48;;;;;;;;;;;;;;;27.71;39.46;100903.00;5065568;28;1145;-27
2023/09/14 07:30:14;;;;;;;;;;;;;;;28.02;38.92;100912.00;5078246;28;1106;-27
2023/09/14 07:32:40;;;;;;;;;;;;;;;29.13;36.89;100914.06;5061092;28;991;-27
2023/09/14 07:35:07;;;;;;;;;;;;;;;29.01;37.16;100911.00;5065577;28;1109;-28
2023/09/14 07:37:32;;;;;;;;;;;;;;;29.52;36.28;100910.03;5066460;28;1902;-27
2023/09/14 07:39:58;;;;;;;;;;;;;;;29.79;35.74;100914.84;5073727;28;1071;-26
2023/09/14 07:42:23;;;;;;;;;;;;;;;29.62;35.86;100917.00;5073039;28;1027;-29
2023/09/14 07:44:49;;;;;;;;;;;;;;;29.43;36.20;100913.88;5075789;28;1379;-27
2023/09/14 07:47:14;;;;;;;;;;;;;;;29.98;35.41;100909.75;5073874;28;1293;-29
2023/09/14 07:49:43;;;;;;;;;;;;;;;30.10;35.07;100918.16;5060187;28;1289;-28
2023/09/14 07:52:08;;;;;;;;;;;;;;;29.98;35.57;100907.06;5074669;28;1078;-26
2023/09/14 07:54:34;;;;;;;;;;;;;;;29.94;35.84;100903.91;5073607;28;1031;-30
2023/09/14 07:57:00;;;;;;;;;;;;;;;30.04;35.56;100907.09;5073805;28;1991;-29
2023/09/14 07:59:27;;;;;;;;;;;;;;;30.10;35.56;100915.44;5071683;28;1078;-28
2023/09/14 08:01:52;;;;;;;;;;;;;;;30.33;35.33;100911.66;5078384;28;1103;-26
2023/09/14 08:04:17;;;;;;;;;;;;;;;28.60;39.53;100902.38;5063101;28;1026;-28
2023/09/14 08:06:43;;;;;;;;;;;;;;;29.50;37.42;100912.09;5068781;28;1454;-27
2023/09/14 08:09:09;;;;;;;;;;;;;;;29.76;37.08;100909.81;5065335;28;1316;-28
2023/09/14 08:11:36;;;;;;;;;;;;;;;30.05;36.50;100907.91;5070096;28;1039;-29
2023/09/14 08:14:02;;;;;;;;;;;;;;;29.88;37.12;100916.34;5078137;28;1078;-29
2023/09/14 08:16:31;;;;;;;;;;;;;;;30.35;36.32;100914.97;5065378;28;1914;-26
2023/09/14 08:18:56;;;;;;;;;;;;;;;30.21;37.15;100908.66;5071466;28;1070;-27
2023/09/14 08:21:22;;;;;;;;;;;;;;;29.32;38.95;100907.13;5057813;28;1047;-29
2023/09/14 08:23:48;;;;;;;;;;;;;;;29.29;39.22;100894.81;5076284;28;1003;-29
2023/09/14 08:26:13;;;;;;;;;;;;;;;28.95;40.61;100901.72;5064729;28;1094;-29
2023/09/14 08:28:39;;;;;;;;;;;;;;;29.11;40.21;100898.00;5077344;28;1004;-30
2023/09/14 08:31:04;;;;;;;;;;;;;;;29.22;40.25;100893.91;5077464;28;1095;-27
2023/09/14 08:33:30;;;;;;;;;;;;;;;29.39;39.90;100893.66;5071457;28;1205;-25
2023/09/14 08:35:55;;;;;;;;;;;;;;;30.31;37.79;100882.00;5057921;28;1035;-29
2023/09/14 08:38:22;;;;;;;;;;;;;;;30.20;38.04;100883.41;5066563;28;1914;-29
2023/09/14 08:40:51;;;;;;;;;;;;;;;30.54;37.34;100891.69;5076712;28;1142;-26
2023/09/14 08:43:19;;;;;;;;;;;;;;;30.66;36.71;100887.34;5074392;28;1024;-30
2023/09/14 08:45:44;;;;;;;;;;;;;;;30.72;36.84;100882.97;5073964;28;971;-27
2023/09/14 08:48:10;;;;;;;;;;;;;;;30.79;36.87;100875.69;5053332;28;1016;-29
2023/09/14 08:50:35;;;;;;;;;;;;;;;30.85;36.35;100879.50;5050810;28;1008;-28
2023/09/14 08:53:01;;;;;;;;;;;;;;;30.58;37.19;100879.38;5053488;28;1177;-25
2023/09/14 08:55:28;;;;;;;;;;;;;;;30.71;36.75;100872.34;5058865;28;973;-27
2023/09/14 08:57:54;;;;;;;;;;;;;;;30.85;36.41;100868.63;5057733;28;1973;-27
2023/09/14 09:00:20;;;;;;;;;;;;;;;30.98;36.05;100880.56;5050753;28;1139;-31
2023/09/14 09:02:46;;;;;;;;;;;;;;;31.05;35.80;100875.97;5063705;28;1050;-27
2023/09/14 09:05:12;;;;;;;;;;;;;;;30.67;36.61;100870.03;5077275;28;1004;-28
2023/09/14 09:07:39;;;;;;;;;;;;;;;31.03;36.13;100869.94;5072420;28;1075;-31
2023/09/14 09:10:04;;;;;;;;;;;;;;;31.16;35.31;100866.38;5057299;28;1154;-26
2023/09/14 09:12:30;;;;;;;;;;;;;;;31.28;35.13;100874.75;5053151;28;1114;-27
2023/09/14 09:14:55;;;;;;;;;;;;;;;31.30;35.15;100874.53;5056907;28;1197;-30
2023/09/14 09:17:21;;;;;;;;;;;;;;;30.90;35.93;100876.16;5057465;28;1973;-29
2023/09/14 09:19:52;;;;;;;;;;;;;;;30.86;36.04;100861.31;5072004;28;912;-27
2023/09/14 09:22:17;;;;;;;;;;;;;;;29.65;38.19;100867.81;5076501;28;1521;-29
2023/09/14 09:24:43;;;;;;;;;;;;;;;30.63;36.41;100873.38;5076578;28;1082;-25
2023/09/14 09:27:24;;;;;;;;;;;;;;;30.97;35.70;100871.56;5076629;28;1121;-28
2023/09/14 09:29:50;;;;;;;;;;;;;;;31.37;34.83;100873.50;5062933;28;1155;-26
2023/09/14 09:32:22;;;;;;;;;;;;;;;31.09;35.25;100879.13;5076134;28;976;-28
2023/09/14 09:34:47;;;;;;;;;;;;;;;31.30;34.74;100872.63;5076594;28;1442;-27
2023/09/14 09:37:13;;;;;;;;;;;;;;;31.01;35.31;100872.81;5076448;28;1901;-27
2023/09/14 09:39:39;;;;;;;;;;;;;;;31.24;34.72;100866.19;5058418;28;1044;-29
2023/09/14 09:42:05;;;;;;;;;;;;;;;31.60;34.09;100871.41;5046363;28;1063;-27
2023/09/14 09:44:30;;;;;;;;;;;;;;;31.24;34.67;100859.91;5069449;28;1031;-26
2023/09/14 09:46:56;;;;;;;;;;;;;;;31.67;33.95;100860.50;5069385;28;1127;-30
2023/09/14 09:49:23;;;;;;;;;;;;;;;31.69;34.19;100862.00;5070494;28;1075;-29
2023/09/14 09:51:49;;;;;;;;;;;;;;;31.60;33.86;100857.81;5056235;28;1051;-28
2023/09/14 09:54:14;;;;;;;;;;;;;;;31.44;33.79;100867.22;5056157;28;1190;-29
2023/09/14 09:56:40;;;;;;;;;;;;;;;31.43;33.37;100849.25;5063421;28;1898;-27
2023/09/14 09:59:09;;;;;;;;;;;;;;;31.19;33.69;100844.22;5066950;28;1186;-29
2023/09/14 10:01:36;;;;;;;;;;;;;;;29.98;36.01;100839.25;5082735;28;1213;-31
2023/09/14 10:04:05;;;;;;;;;;;;;;;31.01;33.99;100842.13;5062452;28;1126;-25
2023/09/14 10:06:31;;;;;;;;;;;;;;;30.98;33.12;100843.34;5058103;28;1048;-26
2023/09/14 10:09:01;;;;;;;;;;;;;;;30.90;32.77;100849.84;5069306;28;1119;-26
2023/09/14 10:11:27;;;;;;;;;;;;;;;30.73;32.88;100837.66;5069079;28;1018;-26
2023/09/14 10:13:53;;;;;;;;;;;;;;;30.48;33.41;100840.94;5050723;28;1050;-28
2023/09/14 10:16:21;;;;;;;;;;;;;;;30.51;34.00;100848.69;5063348;28;1325;-26
2023/09/14 10:18:47;;;;;;;;;;;;;;;30.42;34.07;100839.88;5057788;28;1977;-27
2023/09/14 10:21:12;;;;;;;;;;;;;;;30.54;34.40;100849.13;5058505;28;1051;-28
2023/09/14 10:23:38;;;;;;;;;;;;;;;30.46;34.89;100843.03;5061809;28;1194;-30
2023/09/14 10:26:03;;;;;;;;;;;;;;;30.40;35.30;100834.66;5056357;28;1085;-31
2023/09/14 10:28:29;;;;;;;;;;;;;;;30.34;35.65;100835.47;5051294;28;1119;-28
2023/09/14 10:30:55;;;;;;;;;;;;;;;30.43;35.63;100838.81;5057650;28;1040;-26
2023/09/14 10:33:20;;;;;;;;;;;;;;;30.37;35.65;100826.06;5044721;28;1083;-28
2023/09/14 10:35:46;;;;;;;;;;;;;;;30.51;35.44;100840.53;5057714;28;1075;-25
2023/09/14 10:38:11;;;;;;;;;;;;;;;30.38;35.42;100834.00;5068261;28;1918;-27
2023/09/14 10:40:37;;;;;;;;;;;;;;;30.31;36.03;100833.16;5056154;28;991;-25
2023/09/14 10:43:05;;;;;;;;;;;;;;;30.24;36.32;100840.44;5062852;28;1031;-25
2023/09/14 10:45:32;;;;;;;;;;;;;;;30.29;36.16;100832.53;5057001;28;1245;-25
2023/09/14 10:47:57;;;;;;;;;;;;;;;30.19;36.72;100835.59;5062881;28;1032;-25
2023/09/14 10:50:24;;;;;;;;;;;;;;;30.23;36.30;100833.34;5044500;28;1079;-25
2023/09/14 10:52:49;;;;;;;;;;;;;;;30.17;36.61;100834.94;5052966;28;1278;-27
2023/09/14 10:55:15;;;;;;;;;;;;;;;30.14;36.84;100830.78;5041322;28;1052;-24
2023/09/14 10:57:40;;;;;;;;;;;;;;;30.16;36.75;100833.28;5045938;28;1977;-30
2023/09/14 11:00:07;;;;;;;;;;;;;;;30.10;36.90;100829.47;5055847;28;1059;-26
2023/09/14 11:02:45;;;;;;;;;;;;;;;30.06;36.88;100820.09;5068037;28;1036;-29
2023/09/14 11:05:11;;;;;;;;;;;;;;;29.97;37.17;100824.84;5062630;28;977;-25
2023/09/14 11:07:37;;;;;;;;;;;;;;;30.04;36.95;100814.03;5067694;28;1030;-28
2023/09/14 11:10:03;;;;;;;;;;;;;;;30.57;35.46;100833.44;5075735;28;1107;-25
2023/09/14 11:12:28;;;;;;;;;;;;;;;30.74;35.54;100820.31;5061504;28;1078;-27
2023/09/14 11:15:16;;;;;;;;;;;;;;;30.47;35.96;100817.53;5036916;28;1136;-26
2023/09/14 11:17:41;;;;;;;;;;;;;;;30.41;36.40;100819.22;5072650;28;1918;-27
2023/09/14 11:20:27;;;;;;;;;;;;;;;30.17;36.89;100810.53;5074944;28;916;-25
2023/09/14 11:22:53;;;;;;;;;;;;;;;30.24;36.41;100814.16;5061479;28;1630;-27
2023/09/14 11:25:25;;;;;;;;;;;;;;;30.45;36.19;100808.78;5051581;28;1163;-26
2023/09/14 11:27:51;;;;;;;;;;;;;;;30.73;35.68;100816.75;5056417;28;1261;-28
2023/09/14 11:30:16;;;;;;;;;;;;;;;30.38;36.17;100808.75;5049135;28;1052;-26
2023/09/14 11:32:42;;;;;;;;;;;;;;;30.35;36.34;100801.00;5078040;28;1075;-28
2023/09/14 11:35:07;;;;;;;;;;;;;;;30.56;35.79;100808.19;5077975;28;1043;-26
2023/09/14 11:37:33;;;;;;;;;;;;;;;30.82;35.68;100805.72;5060394;28;1910;-32
2023/09/14 11:40:00;;;;;;;;;;;;;;;30.04;36.75;100792.31;5075715;28;1078;-27
2023/09/14 11:42:26;;;;;;;;;;;;;;;30.37;36.12;100785.38;5078169;28;1055;-27
2023/09/14 11:44:53;;;;;;;;;;;;;;;30.32;35.82;100804.97;5077878;28;868;-27
2023/09/14 11:47:19;;;;;;;;;;;;;;;30.28;36.30;100793.69;5064874;28;991;-26
2023/09/14 11:49:47;;;;;;;;;;;;;;;30.44;36.20;100794.38;5051860;28;1047;-28
2023/09/14 11:52:16;;;;;;;;;;;;;;;30.35;36.35;100795.56;5072478;28;1115;-27
2023/09/14 11:54:49;;;;;;;;;;;;;;;30.58;35.65;100795.22;5064597;28;1107;-27
2023/09/14 11:57:17;;;;;;;;;;;;;;;30.59;35.87;100787.91;5064664;28;1942;-27
2023/09/14 11:59:42;;;;;;;;;;;;;;;30.62;35.43;100795.66;5074893;28;1505;-26
2023/09/14 12:02:08;;;;;;;;;;;;;;;30.68;35.43;100789.38;5077841;28;1020;-28
2023/09/14 12:04:34;;;;;;;;;;;;;;;30.65;35.63;100795.25;5060521;28;1143;-26
2023/09/14 12:07:00;;;;;;;;;;;;;;;30.38;36.06;100787.06;5077670;28;1226;-27
2023/09/14 12:09:33;;;;;;;;;;;;;;;29.97;36.89;100791.44;5042563;28;887;-28
2023/09/14 12:11:58;;;;;;;;;;;;;;;30.06;36.94;100787.53;5069529;28;1044;-26
2023/09/14 12:14:32;;;;;;;;;;;;;;;30.07;36.22;100797.34;5078424;28;1118;-27
2023/09/14 12:16:58;;;;;;;;;;;;;;;30.27;36.13;100791.19;5077664;28;1914;-26
2023/09/14 12:19:23;;;;;;;;;;;;;;;30.34;35.79;100786.63;5064690;28;1070;-26
2023/09/14 12:21:49;;;;;;;;;;;;;;;30.30;35.77;100788.91;5077685;28;1009;-25
2023/09/14 12:24:14;;;;;;;;;;;;;;;30.25;36.29;100783.25;5046641;28;1027;-27
2023/09/14 12:26:39;;;;;;;;;;;;;;;30.05;36.22;100781.28;5078034;28;1086;-29
2023/09/14 12:29:05;;;;;;;;;;;;;;;30.21;35.89;100786.56;5059677;28;1092;-26
2023/09/14 12:31:34;;;;;;;;;;;;;;;29.97;36.46;100780.59;5077625;28;1137;-27
2023/09/14 12:34:00;;;;;;;;;;;;;;;30.26;35.82;100786.81;5058333;28;1039;-27
2023/09/14 12:36:25;;;;;;;;;;;;;;;30.24;35.52;100778.88;5058049;28;1127;-25
2023/09/14 12:38:53;;;;;;;;;;;;;;;30.22;35.55;100775.53;5077353;28;1961;-30
2023/09/14 12:41:18;;;;;;;;;;;;;;;30.36;35.07;100786.41;5070983;28;1082;-25
2023/09/14 12:43:44;;;;;;;;;;;;;;;30.13;35.93;100774.00;5076038;28;1241;-27